Terminal Aerodrome Forecast
Issued by NWS Lake Charles, LA

Home | Current Version | Previous Version | Text Only | Print | Product List | Glossary On
Versions: 1 2 3 4 5 6 7 8 9 10 11 12 13 14 15 16 17
000
FTUS44 KLCH 310500
TAFARA
TAF
KARA 310520Z 3106/0106 18003KT P6SM VCSH SCT025 BKN120
     FM311400 18004KT P6SM VCSH SCT025 BKN050
     FM311800 18007KT P6SM VCTS SCT025CB BKN050=

USA.gov is the U.S. government's official web portal to all federal, state and local government web resources and services.